Time;durP1;ratioP1;P1;durP2;ratioP2;P2;SDS_P1;SDS_P2;PMS_P1;PMS_P2;Temp;Humidity;BMP_temperature;BMP_pressure;BME280_temperature;BME280_humidity;BME280_pressure;Samples;Min_cycle;Max_cycle;Signal;HPM_P1;HPM_P2
2022/09/26 00:01:21;;;;;;;6.20;1.90;;;11.20;99.90;;;;;;5074835;28;20038;-70
2022/09/26 00:03:50;;;;;;;5.35;1.80;;;11.20;99.90;;;;;;5055574;28;20071;-70
2022/09/26 00:06:19;;;;;;;5.55;2.10;;;11.20;99.90;;;;;;5071030;28;20050;-70
2022/09/26 00:08:46;;;;;;;5.35;1.85;;;11.30;99.90;;;;;;5062461;28;20048;-69
2022/09/26 00:11:15;;;;;;;8.55;1.90;;;11.20;99.90;;;;;;5074330;28;20485;-70
2022/09/26 00:13:41;;;;;;;6.85;2.25;;;11.20;99.90;;;;;;5073052;28;20044;-70
2022/09/26 00:16:09;;;;;;;5.78;1.77;;;11.20;99.90;;;;;;5071312;28;20131;-70
2022/09/26 00:18:35;;;;;;;9.68;2.03;;;11.20;99.90;;;;;;5077755;28;20044;-70
2022/09/26 00:21:11;;;;;;;7.57;2.20;;;11.20;99.90;;;;;;5084333;28;20036;-70
2022/09/26 00:23:37;;;;;;;6.32;2.40;;;11.20;99.90;;;;;;5069157;28;20052;-70
2022/09/26 00:26:04;;;;;;;8.55;2.30;;;11.20;99.90;;;;;;5077166;28;20121;-71
2022/09/26 00:28:32;;;;;;;11.07;2.10;;;11.20;99.90;;;;;;5082846;28;20131;-70
2022/09/26 00:31:10;;;;;;;9.35;2.30;;;11.20;99.90;;;;;;5059671;28;20036;-71
2022/09/26 00:33:36;;;;;;;8.30;2.00;;;11.30;99.90;;;;;;5061462;28;20044;-70
2022/09/26 00:36:03;;;;;;;5.43;1.90;;;11.30;99.90;;;;;;5059441;28;20130;-70
2022/09/26 00:38:29;;;;;;;4.57;2.00;;;11.30;99.90;;;;;;5080564;28;20047;-71
2022/09/26 00:40:55;;;;;;;7.00;1.73;;;11.40;99.90;;;;;;5082168;28;20052;-70
2022/09/26 00:43:29;;;;;;;8.88;2.13;;;11.30;99.90;;;;;;5075568;28;20640;-70
2022/09/26 00:46:01;;;;;;;10.00;2.08;;;11.30;99.90;;;;;;5067658;28;20048;-69
2022/09/26 00:48:28;;;;;;;7.55;2.60;;;11.30;99.90;;;;;;5071884;28;20409;-70
2022/09/26 00:50:54;;;;;;;5.68;2.03;;;11.30;99.90;;;;;;5060715;28;20566;-70
2022/09/26 00:53:30;;;;;;;10.40;2.75;;;11.30;99.90;;;;;;5080622;28;20071;-71
2022/09/26 00:56:01;;;;;;;6.82;1.98;;;11.30;99.90;;;;;;5076309;28;20057;-70
2022/09/26 00:58:37;;;;;;;8.40;1.60;;;11.30;99.90;;;;;;5085279;28;20037;-71
2022/09/26 01:01:03;;;;;;;6.13;2.25;;;11.30;99.90;;;;;;5089080;28;20086;-70
2022/09/26 01:03:30;;;;;;;8.25;2.20;;;11.30;99.90;;;;;;5057112;28;20047;-71
2022/09/26 01:05:56;;;;;;;7.18;1.73;;;11.30;99.90;;;;;;5078882;28;20064;-71
2022/09/26 01:08:31;;;;;;;9.88;2.95;;;11.30;99.90;;;;;;5072955;28;20037;-70
2022/09/26 01:10:58;;;;;;;10.85;2.67;;;11.40;99.90;;;;;;5084922;28;20077;-70
2022/09/26 01:13:25;;;;;;;7.50;2.10;;;11.40;99.90;;;;;;5069666;28;20068;-70
2022/09/26 01:15:51;;;;;;;8.60;2.22;;;11.40;99.90;;;;;;5077722;28;20708;-71
2022/09/26 01:18:17;;;;;;;7.30;1.77;;;11.40;99.90;;;;;;5076773;28;20043;-70
2022/09/26 01:21:04;;;;;;;7.28;2.08;;;11.40;99.90;;;;;;5082231;28;20396;-70
2022/09/26 01:23:57;;;;;;;7.78;1.77;;;11.40;99.90;;;;;;5073414;28;20043;-71
2022/09/26 01:26:27;;;;;;;6.50;1.98;;;11.40;99.90;;;;;;5054465;28;20379;-70
2022/09/26 01:29:30;;;;;;;8.30;1.90;;;11.40;99.90;;;;;;5083472;28;20085;-70
2022/09/26 01:35:33;;;;;;;5.65;1.50;;;11.40;99.90;;;;;;5079213;28;20052;-70
2022/09/26 01:38:27;;;;;;;9.52;2.03;;;11.40;99.90;;;;;;5079653;28;20052;-70
2022/09/26 01:41:02;;;;;;;5.72;1.83;;;11.40;99.90;;;;;;5056885;28;20036;-70
2022/09/26 01:43:49;;;;;;;9.68;1.83;;;11.40;99.90;;;;;;5078481;28;20040;-70
2022/09/26 01:46:34;;;;;;;5.38;1.98;;;11.40;99.90;;;;;;5080330;28;20048;-71
2022/09/26 01:49:12;;;;;;;13.27;2.70;;;11.40;99.90;;;;;;5058912;28;20040;-70
2022/09/26 01:51:49;;;;;;;5.28;1.70;;;11.40;99.90;;;;;;5075268;28;20049;-70
2022/09/26 01:54:27;;;;;;;6.57;1.55;;;11.40;99.90;;;;;;5082870;28;20124;-70
2022/09/26 01:56:57;;;;;;;5.60;1.75;;;11.40;99.90;;;;;;5081982;28;20038;-70
2022/09/26 01:59:25;;;;;;;8.00;1.92;;;11.40;99.90;;;;;;5062221;28;20074;-70
2022/09/26 02:01:54;;;;;;;5.80;1.65;;;11.40;99.90;;;;;;5072990;28;20040;-70
2022/09/26 02:04:26;;;;;;;7.97;1.77;;;11.40;99.90;;;;;;5072191;28;20044;-71
2022/09/26 02:06:58;;;;;;;6.72;1.95;;;11.40;99.90;;;;;;5072854;28;20467;-70
2022/09/26 02:09:49;;;;;;;9.68;2.00;;;11.30;99.90;;;;;;5057159;28;20470;-70
2022/09/26 02:12:23;;;;;;;8.65;2.30;;;11.30;99.90;;;;;;5074252;28;20501;-70
2022/09/26 02:14:53;;;;;;;5.80;1.63;;;11.30;99.90;;;;;;5058262;28;20052;-71
2022/09/26 02:17:26;;;;;;;11.02;2.38;;;11.30;99.90;;;;;;5058454;28;20131;-70
2022/09/26 02:20:04;;;;;;;8.77;2.05;;;11.30;99.90;;;;;;5072676;28;20128;-70
2022/09/26 02:22:33;;;;;;;7.50;2.10;;;11.20;99.90;;;;;;5068568;28;20053;-71
2022/09/26 02:25:00;;;;;;;8.55;2.50;;;11.30;99.90;;;;;;5081412;28;20046;-70
2022/09/26 02:27:26;;;;;;;7.47;2.10;;;11.20;99.90;;;;;;5080167;28;20036;-71
2022/09/26 02:29:53;;;;;;;10.80;2.25;;;11.20;99.90;;;;;;5063154;28;20055;-71
2022/09/26 02:32:24;;;;;;;7.70;2.15;;;11.30;99.90;;;;;;5078500;28;20071;-70
2022/09/26 02:34:50;;;;;;;7.53;2.30;;;11.20;99.90;;;;;;5079381;28;20062;-71
2022/09/26 02:37:19;;;;;;;11.13;2.97;;;11.20;99.90;;;;;;5073247;28;20497;-69
2022/09/26 02:39:47;;;;;;;12.65;2.80;;;11.20;99.90;;;;;;5077062;28;20044;-70
2022/09/26 02:42:27;;;;;;;8.45;2.58;;;11.10;99.90;;;;;;5076854;28;20496;-71
2022/09/26 02:45:20;;;;;;;11.40;2.88;;;11.10;99.90;;;;;;5062209;28;20075;-71
2022/09/26 02:48:15;;;;;;;10.40;2.58;;;11.10;99.90;;;;;;5062256;28;20044;-70
2022/09/26 02:51:11;;;;;;;8.73;3.03;;;10.90;99.90;;;;;;5074702;28;20262;-71
2022/09/26 02:53:56;;;;;;;9.90;2.50;;;11.10;99.90;;;;;;5076024;28;20060;-70
2022/09/26 02:56:36;;;;;;;8.57;2.80;;;11.10;99.90;;;;;;5068618;28;20075;-71
2022/09/26 02:59:33;;;;;;;6.22;2.67;;;11.10;99.90;;;;;;5076640;28;20094;-71
2022/09/26 03:02:12;;;;;;;12.50;2.88;;;11.10;99.90;;;;;;5074824;28;20060;-69
2022/09/26 03:04:45;;;;;;;9.90;2.72;;;11.10;99.90;;;;;;5076895;28;20501;-71
2022/09/26 03:07:15;;;;;;;11.32;2.75;;;11.10;99.90;;;;;;5080195;28;20866;-70
2022/09/26 03:09:42;;;;;;;7.40;3.28;;;11.00;99.90;;;;;;5080676;28;20080;-70
2022/09/26 03:12:10;;;;;;;8.55;2.80;;;11.10;99.90;;;;;;5056996;28;20033;-71
2022/09/26 03:14:39;;;;;;;9.93;3.10;;;11.00;99.90;;;;;;5076274;28;20036;-71
2022/09/26 03:17:06;;;;;;;8.32;3.03;;;11.10;99.90;;;;;;5079262;28;20032;-72
2022/09/26 03:19:42;;;;;;;9.32;3.13;;;11.10;99.90;;;;;;5057042;28;20067;-71
2022/09/26 03:22:08;;;;;;;9.07;3.17;;;11.10;99.90;;;;;;5073847;28;20053;-71
2022/09/26 03:24:40;;;;;;;7.45;3.10;;;11.10;99.90;;;;;;5072337;28;20093;-71
2022/09/26 03:27:07;;;;;;;10.85;3.35;;;11.10;99.90;;;;;;5057792;28;20101;-71
2022/09/26 03:29:33;;;;;;;10.13;3.80;;;11.10;99.90;;;;;;5080334;28;20115;-71
2022/09/26 03:31:59;;;;;;;10.77;3.38;;;11.10;99.90;;;;;;5073614;28;20115;-70
2022/09/26 03:34:26;;;;;;;7.88;3.95;;;11.00;99.90;;;;;;5076379;28;20048;-71
2022/09/26 03:36:53;;;;;;;10.25;3.50;;;11.20;99.90;;;;;;5069494;28;20455;-70
2022/09/26 03:39:18;;;;;;;13.43;4.03;;;11.10;99.90;;;;;;5075104;28;20040;-70
2022/09/26 03:41:44;;;;;;;12.20;4.35;;;11.10;99.90;;;;;;5076484;28;20044;-70
2022/09/26 03:44:11;;;;;;;9.65;4.40;;;11.10;99.90;;;;;;5082497;28;20032;-70
2022/09/26 03:46:37;;;;;;;9.73;4.00;;;11.00;99.90;;;;;;5078513;28;20075;-71
2022/09/26 03:49:03;;;;;;;10.43;4.43;;;11.10;99.90;;;;;;5079882;28;20519;-71
2022/09/26 03:51:28;;;;;;;10.45;4.50;;;11.00;99.90;;;;;;5050590;28;20041;-71
2022/09/26 03:53:55;;;;;;;7.13;3.90;;;11.10;99.90;;;;;;5075435;28;20504;-70
2022/09/26 03:56:20;;;;;;;8.57;3.80;;;11.10;99.90;;;;;;5076546;28;20040;-70
2022/09/26 03:58:49;;;;;;;9.50;4.38;;;11.10;99.90;;;;;;5084331;28;20028;-70
2022/09/26 04:01:18;;;;;;;12.63;4.32;;;11.10;99.90;;;;;;5081453;28;20040;-72
2022/09/26 04:03:45;;;;;;;11.35;4.18;;;11.10;99.90;;;;;;5074656;28;20067;-72
2022/09/26 04:06:12;;;;;;;11.27;4.28;;;11.10;99.90;;;;;;5078928;28;20047;-71
2022/09/26 04:08:40;;;;;;;9.50;3.63;;;11.10;99.90;;;;;;5072116;28;20130;-71
2022/09/26 04:11:11;;;;;;;8.82;3.70;;;11.00;99.90;;;;;;5066416;28;20074;-71
2022/09/26 04:13:37;;;;;;;7.97;4.07;;;11.00;99.90;;;;;;5059502;28;20048;-71
2022/09/26 04:16:05;;;;;;;8.48;4.07;;;11.10;99.90;;;;;;5082704;28;20041;-71
2022/09/26 04:18:34;;;;;;;11.82;4.55;;;11.10;99.90;;;;;;5077888;28;20032;-71
2022/09/26 04:21:19;;;;;;;12.35;4.15;;;11.00;99.90;;;;;;5068245;28;20102;-71
2022/09/26 04:23:45;;;;;;;8.95;3.92;;;11.10;99.90;;;;;;5082062;28;20040;-70
2022/09/26 04:26:18;;;;;;;8.48;4.22;;;11.10;99.90;;;;;;5076540;28;20109;-71
2022/09/26 04:28:45;;;;;;;9.00;4.20;;;11.00;99.90;;;;;;5057218;28;20109;-71
2022/09/26 04:31:12;;;;;;;7.47;4.03;;;11.10;99.90;;;;;;5067016;28;20044;-70
2022/09/26 04:33:38;;;;;;;13.02;3.90;;;11.00;99.90;;;;;;5081578;28;20388;-70
2022/09/26 04:36:07;;;;;;;12.23;4.20;;;11.00;99.90;;;;;;5077224;28;20045;-71
2022/09/26 04:38:33;;;;;;;10.05;4.05;;;11.10;99.90;;;;;;5077878;28;20039;-71
2022/09/26 04:41:17;;;;;;;10.40;3.88;;;11.00;99.90;;;;;;5068176;28;20119;-71
2022/09/26 04:43:43;;;;;;;8.63;4.28;;;11.00;99.90;;;;;;5070734;28;20112;-71
2022/09/26 04:46:19;;;;;;;8.23;4.40;;;11.00;99.90;;;;;;5055761;28;20072;-71
2022/09/26 04:48:45;;;;;;;8.60;4.15;;;11.00;99.90;;;;;;5065681;28;20056;-71
2022/09/26 04:51:13;;;;;;;9.60;4.30;;;11.00;99.90;;;;;;5057258;28;20044;-70
2022/09/26 04:53:40;;;;;;;10.52;4.28;;;11.00;99.90;;;;;;5056456;28;20052;-72
2022/09/26 04:56:08;;;;;;;11.25;4.20;;;11.00;99.90;;;;;;5053392;28;20041;-71
2022/09/26 04:58:36;;;;;;;10.75;4.88;;;11.00;99.90;;;;;;5057152;28;20059;-71
2022/09/26 05:01:05;;;;;;;11.15;4.78;;;11.00;99.90;;;;;;5037642;28;20409;-72
2022/09/26 05:03:37;;;;;;;9.52;4.30;;;11.00;99.90;;;;;;5057071;28;20045;-71
2022/09/26 05:06:07;;;;;;;9.77;4.53;;;11.00;99.90;;;;;;5066188;28;20041;-71
2022/09/26 05:08:38;;;;;;;8.68;4.60;;;11.00;99.90;;;;;;5054675;28;20114;-71
2022/09/26 05:11:04;;;;;;;10.53;4.57;;;11.00;99.90;;;;;;5058879;28;20068;-71
2022/09/26 05:13:30;;;;;;;10.90;4.45;;;11.00;99.90;;;;;;5059579;28;20684;-70
2022/09/26 05:15:58;;;;;;;11.32;5.10;;;11.00;99.90;;;;;;5058376;28;20040;-70
2022/09/26 05:18:25;;;;;;;11.98;4.78;;;11.00;99.90;;;;;;5040345;28;20032;-70
2022/09/26 05:20:52;;;;;;;11.02;5.18;;;11.00;99.90;;;;;;5041907;28;20484;-70
2022/09/26 05:26:19;;;;;;;11.23;5.47;;;10.90;99.90;;;;;;5055369;28;20094;-70
2022/09/26 05:29:00;;;;;;;13.60;5.35;;;10.90;99.90;;;;;;5066217;28;20063;-71
2022/09/26 05:31:28;;;;;;;10.50;5.78;;;10.90;99.90;;;;;;5080102;28;20698;-72
2022/09/26 05:33:57;;;;;;;12.95;5.80;;;10.90;99.90;;;;;;5049870;28;20052;-71
2022/09/26 05:36:26;;;;;;;9.13;5.38;;;10.90;99.90;;;;;;5047526;28;20028;-71
2022/09/26 05:38:53;;;;;;;13.57;5.65;;;10.80;99.90;;;;;;5060941;28;20044;-71
2022/09/26 05:41:18;;;;;;;8.30;5.35;;;10.90;99.90;;;;;;5040020;28;20072;-71
2022/09/26 05:43:45;;;;;;;13.02;5.57;;;10.90;99.90;;;;;;5065130;28;20078;-71
2022/09/26 05:46:10;;;;;;;10.35;5.57;;;10.90;99.90;;;;;;5064357;28;20041;-71
2022/09/26 05:48:38;;;;;;;13.05;6.20;;;10.90;99.90;;;;;;5059536;28;20041;-71
2022/09/26 05:51:11;;;;;;;16.17;6.65;;;10.80;99.90;;;;;;5059113;28;20542;-70
2022/09/26 05:53:41;;;;;;;11.18;5.85;;;10.80;99.90;;;;;;5072009;28;20044;-71
2022/09/26 05:56:08;;;;;;;11.33;5.50;;;10.80;99.90;;;;;;5038199;28;20045;-71
2022/09/26 05:58:36;;;;;;;10.85;5.55;;;10.80;99.90;;;;;;5040679;28;20338;-71
2022/09/26 06:01:06;;;;;;;10.45;5.18;;;10.80;99.90;;;;;;5043736;28;20048;-72
2022/09/26 06:03:33;;;;;;;11.63;5.30;;;10.80;99.90;;;;;;5059488;28;20958;-71
2022/09/26 06:06:09;;;;;;;10.75;5.32;;;10.70;99.90;;;;;;5062413;28;20498;-71
2022/09/26 06:08:36;;;;;;;11.85;5.88;;;10.80;99.90;;;;;;5061093;28;20041;-70
2022/09/26 06:11:04;;;;;;;9.50;5.53;;;10.70;99.90;;;;;;5058326;28;20066;-70
2022/09/26 06:13:31;;;;;;;14.73;5.32;;;10.70;99.90;;;;;;5051956;28;20375;-71
2022/09/26 06:16:05;;;;;;;12.50;5.07;;;10.70;99.90;;;;;;5055761;28;20036;-70
2022/09/26 06:18:32;;;;;;;9.90;4.68;;;10.70;99.90;;;;;;5054795;28;20059;-71
2022/09/26 06:21:02;;;;;;;10.77;4.90;;;10.70;99.90;;;;;;5042892;28;20068;-71
2022/09/26 06:23:29;;;;;;;11.45;5.65;;;10.70;99.90;;;;;;5061086;28;20072;-71
2022/09/26 06:25:55;;;;;;;10.80;4.90;;;10.90;99.90;;;;;;5062319;28;20083;-71
2022/09/26 06:28:21;;;;;;;10.23;5.07;;;10.60;99.90;;;;;;5060284;28;20044;-71
2022/09/26 06:30:46;;;;;;;10.85;5.10;;;10.70;99.90;;;;;;5056568;28;20397;-71
2022/09/26 06:33:12;;;;;;;11.27;5.30;;;10.70;99.90;;;;;;5042723;28;20052;-71
2022/09/26 06:35:38;;;;;;;12.65;5.47;;;10.70;99.90;;;;;;5061519;28;20032;-70
2022/09/26 06:38:04;;;;;;;13.85;5.35;;;10.60;99.90;;;;;;5062417;28;20573;-71
2022/09/26 06:40:32;;;;;;;9.98;5.35;;;10.60;99.90;;;;;;5060096;28;20053;-70
2022/09/26 06:42:59;;;;;;;11.27;5.75;;;10.60;99.90;;;;;;5058763;28;20596;-71
2022/09/26 06:45:25;;;;;;;12.82;5.30;;;10.60;99.90;;;;;;5086545;28;20072;-71
2022/09/26 06:47:52;;;;;;;11.98;5.05;;;10.60;99.90;;;;;;5061246;28;20052;-71
2022/09/26 06:50:18;;;;;;;10.13;5.72;;;10.60;99.90;;;;;;5044955;28;20043;-72
2022/09/26 06:52:43;;;;;;;12.38;5.85;;;10.60;99.90;;;;;;5060207;28;20045;-71
2022/09/26 06:55:10;;;;;;;7.75;4.93;;;10.60;99.90;;;;;;5054578;28;20401;-71
2022/09/26 06:57:41;;;;;;;16.27;5.13;;;10.60;99.90;;;;;;5057754;28;20484;-71
2022/09/26 07:00:09;;;;;;;12.75;5.88;;;10.60;99.90;;;;;;5059369;28;20041;-72
2022/09/26 07:02:35;;;;;;;12.63;5.50;;;10.60;99.90;;;;;;5053597;28;20607;-71
2022/09/26 07:05:04;;;;;;;10.10;5.35;;;10.60;99.90;;;;;;5060862;28;20059;-71
2022/09/26 07:07:31;;;;;;;10.43;4.97;;;10.60;99.90;;;;;;5074457;28;20080;-72
2022/09/26 07:09:57;;;;;;;10.80;5.38;;;10.60;99.90;;;;;;5058284;28;20052;-71
2022/09/26 07:12:27;;;;;;;13.20;5.22;;;10.60;99.90;;;;;;5058658;28;20393;-71
2022/09/26 07:14:54;;;;;;;12.55;5.32;;;10.60;99.90;;;;;;5041220;28;20130;-71
2022/09/26 07:17:19;;;;;;;9.82;5.10;;;10.60;99.90;;;;;;5038322;28;20044;-71
2022/09/26 07:19:51;;;;;;;11.45;4.85;;;10.60;99.90;;;;;;5058865;28;20093;-71
2022/09/26 07:22:17;;;;;;;10.38;5.15;;;10.60;99.90;;;;;;5060249;28;20119;-71
2022/09/26 07:24:45;;;;;;;14.60;5.38;;;10.60;99.90;;;;;;5041615;28;20127;-71
2022/09/26 07:27:11;;;;;;;11.90;5.53;;;10.60;99.90;;;;;;5062052;28;20119;-71
2022/09/26 07:29:37;;;;;;;9.90;5.32;;;10.60;99.90;;;;;;5063211;28;20052;-71
2022/09/26 07:32:02;;;;;;;15.38;4.85;;;10.50;99.90;;;;;;5071028;28;20342;-70
2022/09/26 07:34:29;;;;;;;9.52;4.80;;;10.60;99.90;;;;;;5061868;28;20121;-71
2022/09/26 07:36:55;;;;;;;10.23;4.68;;;10.60;99.90;;;;;;5060460;28;20098;-71
2022/09/26 07:39:20;;;;;;;9.77;4.40;;;10.60;99.90;;;;;;5062197;28;20037;-71
2022/09/26 07:41:48;;;;;;;10.55;4.72;;;10.60;99.90;;;;;;5062701;28;20039;-71
2022/09/26 07:44:14;;;;;;;8.45;4.50;;;10.60;99.90;;;;;;5046416;28;20045;-71
2022/09/26 07:52:08;;;;;;;8.90;4.47;;;10.60;99.90;;;;;;5061207;28;20144;-71
2022/09/26 07:54:35;;;;;;;10.98;4.68;;;10.70;99.90;;;;;;5062083;28;20127;-71
2022/09/26 07:57:03;;;;;;;7.70;4.03;;;10.70;99.90;;;;;;5062762;28;20413;-72
2022/09/26 07:59:34;;;;;;;11.00;4.68;;;10.70;99.90;;;;;;5043722;28;20048;-71
2022/09/26 08:02:00;;;;;;;10.13;3.92;;;10.80;99.90;;;;;;5044566;28;20079;-71
2022/09/26 08:04:27;;;;;;;7.63;3.70;;;10.70;99.90;;;;;;5061306;28;20113;-71
2022/09/26 08:06:54;;;;;;;9.77;3.97;;;10.70;99.90;;;;;;5042865;28;20056;-71
2022/09/26 08:09:20;;;;;;;10.15;3.95;;;10.80;99.90;;;;;;5044397;28;20044;-72
2022/09/26 08:11:46;;;;;;;11.25;4.18;;;10.80;99.90;;;;;;5045722;28;20087;-72
2022/09/26 08:14:12;;;;;;;12.55;4.20;;;10.80;99.90;;;;;;5058764;28;20040;-72
2022/09/26 08:16:40;;;;;;;12.05;3.97;;;10.80;99.90;;;;;;5057188;28;20046;-72
2022/09/26 08:19:07;;;;;;;13.75;3.70;;;10.80;99.90;;;;;;5044714;28;20138;-72
2022/09/26 08:21:34;;;;;;;11.40;3.83;;;10.80;99.90;;;;;;5043303;28;20048;-73
2022/09/26 08:24:01;;;;;;;8.55;2.95;;;10.80;99.90;;;;;;5064541;28;20863;-72
2022/09/26 08:26:27;;;;;;;9.13;3.85;;;10.90;99.90;;;;;;5046480;28;20058;-72
2022/09/26 08:28:53;;;;;;;8.52;3.25;;;10.80;99.90;;;;;;5045478;28;20041;-72
2022/09/26 08:31:19;;;;;;;8.30;3.20;;;10.90;99.90;;;;;;5062039;28;20043;-72
2022/09/26 08:33:46;;;;;;;7.20;3.35;;;10.90;99.90;;;;;;5062010;28;20098;-73
2022/09/26 08:36:16;;;;;;;8.38;3.25;;;10.90;99.90;;;;;;5061522;28;20041;-72
2022/09/26 08:38:42;;;;;;;7.75;3.08;;;10.90;99.90;;;;;;5061520;28;20533;-71
2022/09/26 08:41:36;;;;;;;8.13;3.30;;;10.90;99.90;;;;;;5046392;28;20072;-72
2022/09/26 08:44:02;;;;;;;9.77;3.35;;;10.90;99.90;;;;;;5057382;28;20044;-72
2022/09/26 08:47:01;;;;;;;10.48;3.05;;;11.00;99.90;;;;;;5048200;28;20032;-72
2022/09/26 08:49:53;;;;;;;6.50;3.05;;;11.00;99.90;;;;;;5061699;28;20036;-73
2022/09/26 08:52:36;;;;;;;8.93;3.58;;;11.10;99.90;;;;;;5062092;28;20414;-72
2022/09/26 08:55:30;;;;;;;8.48;3.20;;;11.10;99.90;;;;;;5059542;28;20106;-72
2022/09/26 08:58:14;;;;;;;11.27;3.88;;;11.10;99.90;;;;;;5059223;28;20048;-72
2022/09/26 09:00:40;;;;;;;6.90;3.47;;;11.10;99.90;;;;;;5061979;28;20430;-72
2022/09/26 09:03:09;;;;;;;7.47;3.03;;;11.20;99.90;;;;;;5061822;28;20048;-72
2022/09/26 09:05:39;;;;;;;9.90;3.60;;;11.20;99.90;;;;;;5058673;28;20508;-72
2022/09/26 09:08:14;;;;;;;9.95;3.70;;;11.20;99.90;;;;;;5042341;28;20048;-73
2022/09/26 09:11:00;;;;;;;11.10;3.40;;;11.20;99.90;;;;;;5058016;28;20699;-72
2022/09/26 09:13:54;;;;;;;7.60;2.97;;;11.30;99.90;;;;;;5042478;28;20051;-72
2022/09/26 09:16:52;;;;;;;9.93;3.40;;;11.30;99.90;;;;;;5087722;28;20051;-72
2022/09/26 09:19:36;;;;;;;9.55;3.10;;;11.30;99.90;;;;;;5085444;28;20699;-72
2022/09/26 09:22:05;;;;;;;9.10;3.53;;;11.40;99.90;;;;;;5059006;28;20527;-72
2022/09/26 09:24:57;;;;;;;7.93;3.05;;;11.40;99.90;;;;;;5058338;28;20036;-73
2022/09/26 09:28:09;;;;;;;6.90;3.08;;;11.40;99.90;;;;;;5076421;28;20104;-72
2022/09/26 09:30:50;;;;;;;9.35;2.85;;;11.40;99.90;;;;;;5041405;28;20044;-72
2022/09/26 09:33:31;;;;;;;10.13;2.90;;;11.50;99.90;;;;;;5057316;28;20048;-72
2022/09/26 09:36:10;;;;;;;8.35;3.55;;;11.50;99.90;;;;;;5059361;28;20048;-73
2022/09/26 09:38:39;;;;;;;9.02;2.92;;;11.50;99.90;;;;;;5059535;28;20044;-71
2022/09/26 09:41:11;;;;;;;11.93;3.38;;;11.50;99.90;;;;;;5043733;28;20453;-72
2022/09/26 09:43:36;;;;;;;8.43;3.20;;;11.50;99.90;;;;;;5043228;28;20469;-73
2022/09/26 09:46:09;;;;;;;10.70;3.10;;;11.50;99.90;;;;;;5055490;28;20123;-72
2022/09/26 09:48:35;;;;;;;11.88;3.25;;;11.50;99.90;;;;;;5041559;28;20048;-73
2022/09/26 09:51:14;;;;;;;9.98;3.30;;;11.50;99.90;;;;;;5055861;28;20509;-73
2022/09/26 09:53:42;;;;;;;8.55;3.70;;;11.60;99.90;;;;;;5069619;28;20068;-73
2022/09/26 09:56:08;;;;;;;9.13;3.78;;;11.50;99.90;;;;;;5044815;28;20401;-73
2022/09/26 09:58:53;;;;;;;14.45;4.43;;;11.50;99.90;;;;;;5061151;28;20067;-72
2022/09/26 10:01:48;;;;;;;12.68;4.13;;;11.50;99.90;;;;;;5062976;28;20053;-74
2022/09/26 10:04:26;;;;;;;12.48;4.10;;;11.50;99.90;;;;;;5062779;28;20071;-73
2022/09/26 10:06:54;;;;;;;10.25;4.40;;;11.50;99.90;;;;;;5087400;28;20044;-73
2022/09/26 10:09:28;;;;;;;12.02;4.32;;;11.50;99.90;;;;;;5061880;28;20519;-73
2022/09/26 10:11:55;;;;;;;8.70;4.22;;;11.40;99.90;;;;;;5061108;28;20102;-72
2022/09/26 10:14:39;;;;;;;9.98;5.43;;;11.50;99.90;;;;;;5061685;28;20566;-72
2022/09/26 10:17:08;;;;;;;9.75;5.18;;;11.50;99.90;;;;;;5058141;28;20065;-72
2022/09/26 10:19:36;;;;;;;10.35;4.82;;;11.70;99.90;;;;;;5062077;28;20107;-72
2022/09/26 10:22:11;;;;;;;11.65;4.68;;;11.40;99.90;;;;;;5063363;28;20048;-73
2022/09/26 10:24:39;;;;;;;9.20;4.60;;;11.40;99.90;;;;;;5059855;28;20066;-73
2022/09/26 10:27:36;;;;;;;9.30;4.55;;;11.40;99.90;;;;;;5060698;28;20066;-73
2022/09/26 10:30:20;;;;;;;11.38;4.65;;;11.50;99.90;;;;;;5062585;28;20151;-74
2022/09/26 10:32:52;;;;;;;9.82;4.40;;;11.40;99.90;;;;;;5059268;28;20044;-72
2022/09/26 10:35:25;;;;;;;9.70;4.38;;;11.50;99.90;;;;;;5041673;28;20131;-72
2022/09/26 10:38:05;;;;;;;10.73;5.20;;;11.50;99.90;;;;;;5062677;28;20036;-72
2022/09/26 10:40:49;;;;;;;12.05;4.45;;;11.40;99.90;;;;;;5061175;28;20450;-72
2022/09/26 10:43:36;;;;;;;11.00;4.35;;;11.40;99.90;;;;;;5057815;28;20037;-72
2022/09/26 10:46:05;;;;;;;9.02;4.30;;;11.40;99.90;;;;;;5045896;28;20040;-75
2022/09/26 10:48:46;;;;;;;10.18;4.57;;;11.40;99.90;;;;;;5058759;28;20052;-72
2022/09/26 10:51:49;;;;;;;10.43;4.70;;;11.40;99.90;;;;;;5056745;28;20178;-71
2022/09/26 10:54:21;;;;;;;8.85;4.53;;;11.50;99.90;;;;;;5087625;28;20497;-74
2022/09/26 10:56:56;;;;;;;10.88;4.65;;;11.40;99.90;;;;;;5058871;28;21284;-72
2022/09/26 10:59:30;;;;;;;8.73;4.70;;;11.40;99.90;;;;;;5061092;28;20087;-73
2022/09/26 11:01:57;;;;;;;11.95;4.45;;;11.40;99.90;;;;;;5058771;28;20048;-72
2022/09/26 11:07:23;;;;;;;9.07;4.63;;;11.40;99.90;;;;;;5082810;28;20063;-73
2022/09/26 11:09:51;;;;;;;8.55;4.38;;;11.40;99.90;;;;;;5041782;28;20048;-73
2022/09/26 11:12:29;;;;;;;10.30;4.82;;;11.40;99.90;;;;;;5063929;28;20044;-73
2022/09/26 11:14:58;;;;;;;11.20;4.90;;;11.50;99.90;;;;;;5044122;28;20048;-72
2022/09/26 11:17:46;;;;;;;9.55;5.25;;;11.50;99.90;;;;;;5059492;28;20044;-73
2022/09/26 11:20:40;;;;;;;10.23;4.47;;;11.50;99.90;;;;;;5069451;28;20055;-72
2022/09/26 11:23:33;;;;;;;10.63;4.53;;;11.50;99.90;;;;;;5063319;28;20037;-72
2022/09/26 11:26:11;;;;;;;10.68;5.22;;;11.50;99.90;;;;;;5042178;28;20448;-72
2022/09/26 11:28:50;;;;;;;10.18;4.75;;;11.50;99.90;;;;;;5060865;28;20120;-72
2022/09/26 11:31:28;;;;;;;15.45;5.50;;;11.50;99.90;;;;;;5045109;28;20102;-72
2022/09/26 11:33:57;;;;;;;7.60;4.50;;;11.50;99.90;;;;;;5061355;28;20706;-71
2022/09/26 11:36:27;;;;;;;9.35;4.65;;;11.60;99.90;;;;;;5060546;28;20040;-72
2022/09/26 11:38:55;;;;;;;9.00;4.68;;;11.60;99.90;;;;;;5094440;28;20056;-72
2022/09/26 11:41:43;;;;;;;7.85;4.57;;;11.60;99.90;;;;;;5063144;28;20047;-72
2022/09/26 11:44:20;;;;;;;9.07;4.05;;;11.60;99.90;;;;;;5058887;28;20696;-72
2022/09/26 11:47:09;;;;;;;9.10;4.50;;;11.60;99.90;;;;;;5063601;28;21292;-72
2022/09/26 11:49:53;;;;;;;7.88;4.63;;;11.60;99.90;;;;;;5042537;28;20106;-73
2022/09/26 11:52:56;;;;;;;9.15;5.15;;;11.70;99.90;;;;;;5058442;28;20051;-72
2022/09/26 11:55:36;;;;;;;8.98;4.43;;;11.70;99.90;;;;;;5061674;28;20048;-71
2022/09/26 11:58:37;;;;;;;7.65;4.82;;;11.70;99.90;;;;;;5060108;28;20044;-72
2022/09/26 12:01:15;;;;;;;9.82;4.68;;;11.70;99.90;;;;;;5040525;28;20479;-73
2022/09/26 12:03:50;;;;;;;7.45;4.45;;;11.70;99.90;;;;;;5085344;28;20055;-73
2022/09/26 12:06:21;;;;;;;9.68;4.80;;;11.80;99.90;;;;;;5062512;28;20099;-71
2022/09/26 12:09:07;;;;;;;7.10;4.78;;;11.80;99.90;;;;;;5058410;28;20048;-72
2022/09/26 12:11:48;;;;;;;6.55;3.90;;;12.00;99.90;;;;;;5040975;28;20421;-71
2022/09/26 12:14:34;;;;;;;6.57;4.32;;;11.80;99.90;;;;;;5063436;28;20434;-72
2022/09/26 12:17:14;;;;;;;10.23;4.88;;;11.80;99.90;;;;;;5064331;28;22321;-73
2022/09/26 12:19:54;;;;;;;7.32;4.45;;;11.80;99.90;;;;;;5064378;28;20126;-72
2022/09/26 12:22:38;;;;;;;8.93;4.90;;;11.80;99.90;;;;;;5047446;28;20469;-72
2022/09/26 12:25:37;;;;;;;8.75;4.50;;;11.80;99.90;;;;;;5063370;28;20098;-72
2022/09/26 12:28:25;;;;;;;8.77;4.47;;;11.90;99.90;;;;;;5063774;28;20159;-72
2022/09/26 12:31:16;;;;;;;7.75;4.40;;;12.10;99.90;;;;;;5080881;28;20421;-73
2022/09/26 12:34:04;;;;;;;7.80;4.28;;;11.90;99.90;;;;;;5063641;28;20040;-72
2022/09/26 12:37:03;;;;;;;6.95;4.38;;;11.90;99.90;;;;;;5089550;28;20053;-72
2022/09/26 12:39:44;;;;;;;7.07;4.18;;;11.90;99.90;;;;;;5090814;27;20102;-73
2022/09/26 12:42:16;;;;;;;8.77;4.13;;;12.00;99.90;;;;;;5047199;28;20041;-72
2022/09/26 12:45:09;;;;;;;6.70;3.85;;;12.00;99.90;;;;;;5065065;28;20119;-72
2022/09/26 12:48:07;;;;;;;7.10;4.35;;;12.00;99.90;;;;;;5079856;28;20048;-71
2022/09/26 12:50:33;;;;;;;8.45;3.75;;;12.00;99.90;;;;;;5091607;28;20045;-72
2022/09/26 12:53:34;;;;;;;6.70;4.10;;;12.10;99.90;;;;;;5063994;28;20524;-72
2022/09/26 12:56:11;;;;;;;6.35;3.72;;;12.10;99.90;;;;;;5063419;28;20083;-72
2022/09/26 12:58:58;;;;;;;10.18;4.10;;;12.20;99.90;;;;;;5065771;28;20048;-73
2022/09/26 13:01:39;;;;;;;9.27;3.95;;;12.20;99.90;;;;;;5047116;28;20789;-72
2022/09/26 13:04:20;;;;;;;7.15;3.67;;;12.30;99.90;;;;;;5062820;28;20131;-73
2022/09/26 13:07:10;;;;;;;6.63;3.80;;;12.30;99.90;;;;;;5085820;28;20056;-72
2022/09/26 13:09:55;;;;;;;7.22;3.88;;;12.40;99.90;;;;;;5062428;28;20672;-73
2022/09/26 13:13:02;;;;;;;6.78;3.40;;;12.40;99.90;;;;;;5063628;28;20040;-72
2022/09/26 13:15:49;;;;;;;6.57;3.50;;;12.40;99.90;;;;;;5045974;28;20079;-73
2022/09/26 13:18:20;;;;;;;6.53;3.70;;;12.40;99.90;;;;;;5063283;28;20043;-72
2022/09/26 13:20:52;;;;;;;;;;;12.50;99.90;;;;;;5062940;28;20050;-74
2022/09/26 13:23:33;;;;;;;7.80;3.63;;;12.50;99.90;;;;;;5061144;28;20456;-72
2022/09/26 13:26:04;;;;;;;8.52;3.50;;;12.60;99.90;;;;;;5077680;28;20532;-73
2022/09/26 13:28:45;;;;;;;6.22;3.40;;;12.60;99.90;;;;;;5063395;28;20703;-73
2022/09/26 13:31:20;;;;;;;5.72;3.40;;;12.50;99.90;;;;;;5091791;28;20509;-73